Terminal Aerodrome Forecast
Issued by NWS

Home | Current Version | Previous Version | Text Only | Print | Product List | Glossary On
Versions: 1 2 3 4 5 6 7 8 9 10 11 12 13
000
FTUS44 KSJT 252320
TAFJCT
TAF
KJCT 252320Z 2600/2624 16009KT 5SM BR SCT050
     FM260400 VRB04KT 4SM BR OVC050
      TEMPO 2604/2606 4SM TS BKN025CB
     FM260800 16005KT 4SM BR OVC015
     FM261300 16005KT 4SM BR OVC025
     FM261700 19010G17KT 4SM HZ BKN100
      TEMPO 2620/2622 2SM TS BKN050CB
     FM262200 18013G21KT 6SM BR OVC050
     FM262300 17012G20KT 4SM BR OVC015=

USA.gov is the U.S. government's official web portal to all federal, state and local government web resources and services.